• Join FlightAware (Why Join?)
  • Login
  • US Flag 
11:50AM EDT


 

Airport Tracker/Info


-or-


 

Live Flight TrackerFlight Track Log ✈ TAM3902 ✈ 15-May-2013 ✈ SBSP / CGH - SBRJ / SDU

Flight Track Log - Related Links

Times and Time Zones

All times are in EDT time to prevent confusion due to time zone crossing. See the TAM3902 flight status page for this flight to view local times or setup timezone preferences in your user account.

Time Position Orientation Groundspeed Altitude Reporting Facility
EDT Latitude Longitude Course Direction KTS MPH feet Rate Location/Type
05:37AM -23.5970 -46.6750 349° North 164 189 3,900  Level FlightAware
05:37AM -23.5790 -46.6580 41° Northeast 200 230 4,900 1,200 Climbing FlightAware
05:38AM -23.5690 -46.6290 69° East 200 230 5,100 2,280 Climbing FlightAware
05:38AM -23.6120 -46.6090 157° South 258 297 6,800 3,900 Climbing FlightAware
05:38AM -23.6230 -46.5940 129° Southeast 297 342 7,400 3,000 Climbing FlightAware
05:38AM -23.6290 -46.5740 108° East 297 342 8,300 2,040 Climbing FlightAware
05:39AM -23.6300 -46.5120 91° East 300 345 9,300 900 Climbing FlightAware
05:40AM -23.6330 -46.4020 92° East 307 353 10,000 1,440 Climbing FlightAware
05:41AM -23.6110 -46.3350 70° East 349 402 12,000 2,940 Climbing FlightAware
05:42AM -23.5840 -46.2590 69° East 370 426 14,200 2,640 Climbing FlightAware
05:42AM -23.5590 -46.1890 69° East 387 445 15,800 2,580 Climbing FlightAware
05:43AM -23.5290 -46.1070 68° East 394 453 17,900 3,480 Climbing FlightAware
05:44AM -23.5030 -46.0370 68° East 361 415 20,800 3,420 Climbing FlightAware
05:45AM -23.4720 -45.9540 68° East 367 422 22,800 2,100 Climbing FlightAware
05:45AM -23.4500 -45.8820 72° East 390 449 23,800 1,620 Climbing FlightAware
05:46AM -23.4310 -45.8050 75° East 403 464 25,000 1,800 Climbing FlightAware
05:47AM -23.4100 -45.7150 76° East 410 472 26,400 1,380 Climbing FlightAware
05:47AM -23.3900 -45.6360 75° East 411 473 27,000 420 Climbing FlightAware
05:48AM -23.3680 -45.5440 75° East 413 475 27,000  Level FlightAware
05:49AM -23.3490 -45.4640 76° East 412 474 27,000  Level FlightAware
05:49AM -23.3270 -45.3740 75° East 410 472 27,000  Level FlightAware
05:50AM -23.3070 -45.2940 75° East 409 471 27,000  Level FlightAware
05:51AM -23.2880 -45.2150 75° East 408 470 27,000  Level FlightAware
05:51AM -23.2680 -45.1330 75° East 410 472 27,000  Level FlightAware
05:52AM -23.2470 -45.0450 75° East 412 474 27,000  Level FlightAware
05:53AM -23.2260 -44.9530 76° East 412 474 27,000  Level FlightAware
05:54AM -23.2080 -44.8730 76° East 412 474 27,000  Level FlightAware
05:54AM -23.1910 -44.7900 77° East 412 474 27,000  Level FlightAware
05:55AM -23.1780 -44.7260 78° East 411 473 27,000  Level FlightAware
05:56AM -23.1530 -44.6010 78° East 408 470 27,000 -180 Level FlightAware
05:57AM -23.1360 -44.5210 77° East 403 464 26,700 -660 Descending FlightAware
05:58AM -23.1130 -44.4080 78° East 396 456 25,900 -1,140 Descending FlightAware
05:59AM -23.1050 -44.2930 86° East 390 449 24,500 -840 Descending FlightAware
05:59AM -23.0990 -44.2260 84° East 390 449 24,500 -1,920 Level FlightAware
05:59AM -23.0980 -44.2120 86° East 22,700 -3,780 Descending FlightAware
06:00AM -23.0940 -44.1710 84° East 363 418 22,000 -1,800 Descending FlightAware
06:01AM -23.0870 -44.1000 84° East 355 409 20,800 -2,220 Descending FlightAware
06:01AM -23.0780 -44.0080 84° East 375 432 18,700 -1,860 Descending FlightAware
06:02AM -23.0720 -43.9430 84° East 346 398 18,200 -1,080 Descending FlightAware
06:03AM -23.0660 -43.8820 84° East 334 384 17,500 -900 Descending FlightAware
06:03AM -23.0590 -43.8120 84° East 332 382 17,000 -1,980 Descending FlightAware
06:04AM -23.0480 -43.6920 84° East 321 369 14,400 -2,700 Descending FlightAware
06:05AM -23.0420 -43.6300 84° East 331 381 13,200 -1,800 Descending FlightAware
06:05AM -23.0340 -43.6050 71° East 331 381 12,800 -1,020 Descending FlightAware
06:06AM -22.9990 -43.5560 52° Northeast 307 353 12,300 -1,080 Descending FlightAware
06:06AM -22.9790 -43.5280 52° Northeast 11,700 -1,200 Descending FlightAware
06:07AM -22.9430 -43.4740 54° Northeast 292 336 10,600 -2,340 Descending FlightAware
06:08AM -22.9150 -43.4180 62° Northeast 289 333 8,600 -3,480 Descending FlightAware
06:08AM -22.9000 -43.3900 60° Northeast 284 327 7,700 -1,200 Descending FlightAware
06:09AM -22.8890 -43.3670 63° Northeast 272 313 7,500 -1,200 Descending FlightAware
06:09AM -22.8830 -43.3470 72° East 242 278 6,700 -3,180 Descending FlightAware
06:09AM -22.8840 -43.3180 92° East 239 275 5,400 -3,120 Descending FlightAware
06:10AM -22.8870 -43.2640 93° East 229 264 3,100 -2,640 Descending FlightAware
06:10AM -22.9020 -43.2360 120° Southeast 219 252 2,100 -1,680 Descending FlightAware
06:11AM -22.9040 -43.2330 126° Southeast 219 252 2,000 -1,200 Descending FlightAware
06:11AM -22.9300 -43.1920 125° Southeast 169 194 1,300 -1,200 Descending FlightAware
06:11AM -22.9420 -43.1880 163° South 150 173 1,100 -840 Descending FlightAware
06:12AM -22.9480 -43.1800 129° Southeast 150 173 900 -720 Descending FlightAware
06:12AM -22.9490 -43.1750 102° East 146 168 800 -900 Descending FlightAware
06:12AM -22.9380 -43.1610 50° Northeast 130 150 400 -480 Descending FlightAware
06:13AM -22.9250 -43.1610 360° North 130 150 400  Level FlightAware